Terminal Aerodrome Forecast
Issued by NWS

Home | Current Version | Previous Version | Text Only | Print | Product List | Glossary On
Versions: 1 2 3 4 5 6 7 8 9 10 11 12 13 14 15 16 17 18 19
252
FTUS41 KPBZ 151722
TAFBVI
TAF
KBVI 151722Z 1518/1618 24007KT P6SM BKN080
     FM152100 23008KT P6SM VCSH BKN045
     FM160000 26011G22KT P6SM VCSH BKN030
     FM160700 26009KT P6SM VCSH BKN025
     FM161500 24008KT P6SM VCSH BKN050=

USA.gov is the U.S. government's official web portal to all federal, state and local government web resources and services.